Hauptseite
METAR-TAF:

METAR-TAF

Flughäfen :

Shell Mera, Ecuador

Breite: 01-30-19S, Länge: 078-03-46W, Höhe: 1056 m

Beobachtung

Neuester Wetterbericht von vor 31 Minuten, um 18:00 UTC
Wind 6 kt aus Nordwest, variierte zwischen West und Nord
Temperatur 20°C
Luftfeuchtigkeit 94%
Luftdruck 1022 hPa
Sichtweite: 8000 m
Aufgelockert bewölkt in der Höhe von 700 ft
Durchbrochene Bewölkung in der Höhe von 2600 ft
Geschlossene Wolkendecke in der Höhe von 9000 ft
Leichtregen

METAR: SESM 251800Z 32006KT 280V010 8000 -RA SCT007 BKN026 OVC090 20/19 Q1022 RMK A3020

Zeit: 13:31 (18:31 UTC)


TAF: fehlend

Wetterbeobachtungen und Prognosen von mehr als 4000 Flughäfen (METAR und TAF Bericht).

Die verfügbaren Stationen werden durch gelbe und rote Markierungen auf der Karte dargestellt.

Führen Sie die Maus auf sie, um den Namen der Station zu sehen.

Darauf klicken, um die Beobachtung von Wetterbeobachtungen und Prognosen zu sehen.

Um die Karte zu ändern : klicken Sie auf den grünen Tasten mit einem schwarzen Kreuz Zum Vergrößern, auf den grünen Button mit einem Gedankenstrich zu verkleinern, oder auf die grünen Pfeile für benachbarte Karten.


METAR-TAF: